createdAt,value
2022-12-01T00:01:09.671Z,17.17
2022-12-01T00:03:36.591Z,15.83
2022-12-01T00:06:17.758Z,19.87
2022-12-01T00:09:05.259Z,27.17
2022-12-01T00:11:32.340Z,25.40
2022-12-01T00:13:59.005Z,22.67
2022-12-01T00:16:25.741Z,24.83
2022-12-01T00:18:53.167Z,21.63
2022-12-01T00:21:22.437Z,25.33
2022-12-01T00:23:52.425Z,21.27
2022-12-01T00:26:20.360Z,22.93
2022-12-01T00:28:51.565Z,24.27
2022-12-01T00:31:21.037Z,25.27
2022-12-01T00:33:48.043Z,21.17
2022-12-01T00:36:14.787Z,25.80
2022-12-01T00:38:41.416Z,23.30
2022-12-01T00:41:08.127Z,22.60
2022-12-01T00:43:34.771Z,24.37
2022-12-01T00:46:01.395Z,19.80
2022-12-01T00:48:28.016Z,23.30
2022-12-01T00:50:55.562Z,23.70
2022-12-01T00:53:22.582Z,25.20
2022-12-01T00:55:49.169Z,21.07
2022-12-01T00:58:15.925Z,23.83
2022-12-01T01:00:42.878Z,23.53
2022-12-01T01:03:10.273Z,19.27
2022-12-01T01:05:38.551Z,22.37
2022-12-01T01:08:09.930Z,21.10
2022-12-01T01:10:44.053Z,20.70
2022-12-01T01:13:12.253Z,21.17
2022-12-01T01:15:39.601Z,18.77
2022-12-01T01:18:07.061Z,22.13
2022-12-01T01:20:34.107Z,30.53
2022-12-01T01:23:00.708Z,21.40
2022-12-01T01:25:27.389Z,20.97
2022-12-01T01:27:54.025Z,21.07
2022-12-01T01:30:20.753Z,20.33
2022-12-01T01:32:47.463Z,18.13
2022-12-01T01:35:14.052Z,21.47
2022-12-01T01:37:41.099Z,20.23
2022-12-01T01:40:08.136Z,20.10
2022-12-01T01:42:34.764Z,17.37
2022-12-01T01:45:01.357Z,20.93
2022-12-01T01:47:34.903Z,24.43
2022-12-01T01:50:13.344Z,22.97
2022-12-01T01:52:46.701Z,19.43
2022-12-01T01:55:14.420Z,19.37
2022-12-01T01:57:41.512Z,18.77
2022-12-01T02:00:12.718Z,19.17
2022-12-01T02:02:43.680Z,21.17
2022-12-01T02:05:20.960Z,22.73
2022-12-01T02:07:48.417Z,24.67
2022-12-01T02:10:22.185Z,23.67
2022-12-01T02:13:24.112Z,23.67
2022-12-01T02:16:27.080Z,21.10
2022-12-01T02:19:32.532Z,25.17
2022-12-01T02:21:59.487Z,22.23
2022-12-01T02:24:26.066Z,22.97
2022-12-01T02:27:11.374Z,23.77
2022-12-01T02:30:03.130Z,19.53
2022-12-01T02:32:41.492Z,18.80
2022-12-01T02:35:11.103Z,23.90
2022-12-01T02:37:49.861Z,24.87
2022-12-01T02:40:20.642Z,20.90
2022-12-01T02:43:03.151Z,23.23
2022-12-01T02:45:44.829Z,27.10
2022-12-01T02:48:17.711Z,28.00
2022-12-01T02:50:46.188Z,30.20
2022-12-01T02:53:15.585Z,27.00
2022-12-01T02:56:10.684Z,30.53
2022-12-01T02:58:37.720Z,27.00
2022-12-01T03:01:19.093Z,26.77
2022-12-01T03:03:59.801Z,30.63
2022-12-01T03:06:37.305Z,31.73
2022-12-01T03:09:40.405Z,34.57
2022-12-01T03:12:23.421Z,30.00
2022-12-01T03:15:05.212Z,28.33
2022-12-01T03:17:46.570Z,27.80
2022-12-01T03:20:21.840Z,33.63
2022-12-01T03:22:53.673Z,26.70
2022-12-01T03:25:24.387Z,33.60
2022-12-01T03:28:20.156Z,34.40
2022-12-01T03:30:45.182Z,43.03
2022-12-01T03:33:22.420Z,37.17
2022-12-01T03:35:58.206Z,33.10
2022-12-01T03:38:27.352Z,38.23
2022-12-01T03:41:01.525Z,41.03
2022-12-01T03:43:36.648Z,34.90
2022-12-01T03:46:12.600Z,33.17
2022-12-01T03:48:40.781Z,41.97
2022-12-01T03:51:26.752Z,38.53
2022-12-01T03:54:02.601Z,31.63
2022-12-01T03:56:35.296Z,39.20
2022-12-01T03:59:04.337Z,42.73
2022-12-01T04:01:33.155Z,44.33
2022-12-01T04:04:17.964Z,40.60
2022-12-01T04:06:50.474Z,37.10
2022-12-01T04:09:17.148Z,40.63
2022-12-01T04:12:02.242Z,39.67
2022-12-01T04:14:29.980Z,39.40
2022-12-01T04:16:56.993Z,38.90
2022-12-01T04:19:24.051Z,35.27
2022-12-01T04:21:51.051Z,46.60
2022-12-01T04:24:18.060Z,41.43
2022-12-01T04:26:45.950Z,42.90
2022-12-01T04:29:13.449Z,42.10
2022-12-01T04:31:40.516Z,43.07
2022-12-01T04:34:07.978Z,43.33
2022-12-01T04:36:35.373Z,42.13
2022-12-01T04:39:02.766Z,46.53
2022-12-01T04:41:29.863Z,41.67
2022-12-01T04:43:56.872Z,41.90
2022-12-01T04:46:24.301Z,44.70
2022-12-01T04:48:50.989Z,44.50
2022-12-01T04:51:17.848Z,48.60
2022-12-01T04:53:44.663Z,45.13
2022-12-01T04:56:11.344Z,48.23
2022-12-01T04:58:38.507Z,46.50
2022-12-01T05:01:08.649Z,57.20
2022-12-01T05:03:43.413Z,44.23
2022-12-01T05:06:13.679Z,50.23
2022-12-01T05:08:40.883Z,51.37
2022-12-01T05:11:08.502Z,55.17
2022-12-01T05:13:37.713Z,48.30
2022-12-01T05:16:09.036Z,49.53
2022-12-01T05:18:36.264Z,51.77
2022-12-01T05:21:04.617Z,54.70
2022-12-01T05:23:33.943Z,51.07
2022-12-01T05:26:01.358Z,53.47
2022-12-01T05:28:28.405Z,55.43
2022-12-01T05:30:55.534Z,54.83
2022-12-01T05:33:23.674Z,51.83
2022-12-01T05:35:51.213Z,52.63
2022-12-01T05:38:19.092Z,46.60
2022-12-01T05:40:54.011Z,51.97
2022-12-01T05:43:28.321Z,58.80
2022-12-01T05:45:56.974Z,51.57
2022-12-01T05:48:24.095Z,56.63
2022-12-01T05:50:51.095Z,54.03
2022-12-01T05:53:18.856Z,54.00
2022-12-01T05:55:46.018Z,62.13
2022-12-01T05:58:13.292Z,56.47
2022-12-01T06:00:45.747Z,62.17
2022-12-01T06:03:13.580Z,57.17
2022-12-01T06:05:40.889Z,57.10
2022-12-01T06:08:07.902Z,51.47
2022-12-01T06:10:34.697Z,56.53
2022-12-01T06:13:01.294Z,50.93
2022-12-01T06:15:27.956Z,52.07
2022-12-01T06:17:54.943Z,53.57
2022-12-01T06:20:23.287Z,53.70
2022-12-01T06:22:49.890Z,51.43
2022-12-01T06:25:17.074Z,52.63
2022-12-01T06:27:43.663Z,56.83
2022-12-01T06:30:10.941Z,57.37
2022-12-01T06:32:37.893Z,54.73
2022-12-01T06:35:05.044Z,51.13
2022-12-01T06:37:32.043Z,52.00
2022-12-01T06:39:59.930Z,48.87
2022-12-01T06:42:29.738Z,49.40
2022-12-01T06:44:56.364Z,55.43
2022-12-01T06:47:23.399Z,55.10
2022-12-01T06:49:50.275Z,52.60
2022-12-01T06:52:16.965Z,42.93
2022-12-01T06:54:44.041Z,56.53
2022-12-01T06:57:11.395Z,52.03
2022-12-01T06:59:38.505Z,45.63
2022-12-01T07:02:05.659Z,50.07
2022-12-01T07:04:32.704Z,46.80
2022-12-01T07:06:59.255Z,44.20
2022-12-01T07:09:26.240Z,46.87
2022-12-01T07:11:52.791Z,46.70
2022-12-01T07:14:24.552Z,51.60
2022-12-01T07:16:51.781Z,47.83
2022-12-01T07:19:18.933Z,49.90
2022-12-01T07:21:46.046Z,49.17
2022-12-01T07:24:12.722Z,46.20
2022-12-01T07:26:40.976Z,46.47
2022-12-01T07:29:09.035Z,44.30
2022-12-01T07:31:37.796Z,44.90
2022-12-01T07:34:05.301Z,42.77
2022-12-01T07:36:32.089Z,48.47
2022-12-01T07:38:59.116Z,46.13
2022-12-01T07:41:26.128Z,43.13
2022-12-01T07:43:53.178Z,42.70
2022-12-01T07:46:25.509Z,38.63
2022-12-01T07:48:55.847Z,49.17
2022-12-01T07:51:24.229Z,46.67
2022-12-01T07:53:52.151Z,44.97
2022-12-01T07:56:19.886Z,45.37
2022-12-01T07:58:46.897Z,43.60
2022-12-01T08:01:15.961Z,47.50
2022-12-01T08:03:43.229Z,50.57
2022-12-01T08:06:10.494Z,45.13
2022-12-01T08:08:39.089Z,46.90
2022-12-01T08:11:10.433Z,44.83
2022-12-01T08:13:37.259Z,35.93
2022-12-01T08:16:05.467Z,49.13
2022-12-01T08:18:35.053Z,44.90
2022-12-01T08:21:01.931Z,43.93
2022-12-01T08:23:28.513Z,49.33
2022-12-01T08:25:55.181Z,43.60
2022-12-01T08:28:21.897Z,42.60
2022-12-01T08:30:48.574Z,48.13
2022-12-01T08:33:15.171Z,49.93
2022-12-01T08:35:41.759Z,49.10
2022-12-01T08:38:09.728Z,45.40
2022-12-01T08:40:36.641Z,38.20
2022-12-01T08:43:03.801Z,47.67
2022-12-01T08:45:30.516Z,46.80
2022-12-01T08:47:58.850Z,50.53
2022-12-01T08:50:26.883Z,48.93
2022-12-01T08:52:54.007Z,46.23
2022-12-01T08:55:22.013Z,43.97
2022-12-01T08:57:48.709Z,52.17
2022-12-01T09:00:16.223Z,47.10
2022-12-01T09:02:42.884Z,49.40
2022-12-01T09:05:10.169Z,50.17
2022-12-01T09:07:36.810Z,42.30
2022-12-01T09:10:04.115Z,46.03
2022-12-01T09:12:30.833Z,46.20
2022-12-01T09:14:57.413Z,53.00
2022-12-01T09:17:23.992Z,47.97
2022-12-01T09:19:50.898Z,48.70
2022-12-01T09:22:17.715Z,53.93
2022-12-01T09:24:44.276Z,51.20
2022-12-01T09:27:10.834Z,52.27
2022-12-01T09:29:37.443Z,43.87
2022-12-01T09:32:04.089Z,53.63
2022-12-01T09:34:30.674Z,53.13
2022-12-01T09:36:58.531Z,48.60
2022-12-01T09:39:25.619Z,50.80
2022-12-01T09:41:57.503Z,47.93
2022-12-01T09:44:36.018Z,50.40
2022-12-01T09:47:19.004Z,50.07
2022-12-01T09:50:04.274Z,54.53
2022-12-01T09:53:02.342Z,49.53
2022-12-01T09:55:30.829Z,46.60
2022-12-01T09:57:59.753Z,43.33
2022-12-01T10:00:33.898Z,55.00
2022-12-01T10:03:45.371Z,41.87
2022-12-01T10:06:32.087Z,42.60
2022-12-01T10:09:07.316Z,43.00
2022-12-01T10:11:39.214Z,47.37
2022-12-01T10:14:09.145Z,39.23
2022-12-01T10:16:52.159Z,42.97
2022-12-01T10:19:42.116Z,44.33
2022-12-01T10:22:29.068Z,47.27
2022-12-01T10:25:15.679Z,34.93
2022-12-01T10:28:05.692Z,44.67
2022-12-01T10:30:39.164Z,40.03
2022-12-01T10:33:19.601Z,36.00
2022-12-01T10:35:46.211Z,30.87
2022-12-01T10:38:22.137Z,35.37
2022-12-01T10:40:50.724Z,38.93
2022-12-01T10:43:17.270Z,37.57
2022-12-01T10:45:45.519Z,40.97
2022-12-01T10:48:19.174Z,40.47
2022-12-01T10:50:54.319Z,37.63
2022-12-01T10:53:23.704Z,37.80
2022-12-01T10:55:57.849Z,37.60
2022-12-01T10:58:24.846Z,40.10
2022-12-01T11:01:01.694Z,37.87
2022-12-01T11:03:32.445Z,37.67
2022-12-01T11:06:02.289Z,44.33
2022-12-01T11:08:54.602Z,39.10
2022-12-01T11:11:34.105Z,36.83
2022-12-01T11:14:07.516Z,35.17
2022-12-01T11:16:44.748Z,38.60
2022-12-01T11:19:23.572Z,34.33
2022-12-01T11:21:56.805Z,37.70
2022-12-01T11:24:33.771Z,31.67
2022-12-01T11:27:00.956Z,34.37
2022-12-01T11:29:37.988Z,29.70
2022-12-01T11:32:19.961Z,40.27
2022-12-01T11:35:04.070Z,37.03
2022-12-01T11:37:38.525Z,34.67
2022-12-01T11:40:43.509Z,38.47
2022-12-01T11:43:27.510Z,31.27
2022-12-01T11:45:56.754Z,34.37
2022-12-01T11:48:25.942Z,33.63
2022-12-01T11:51:27.550Z,33.30
2022-12-01T11:54:06.283Z,31.87
2022-12-01T11:56:32.871Z,34.27
2022-12-01T11:59:03.797Z,32.33
2022-12-01T12:01:53.185Z,31.70
2022-12-01T12:04:40.957Z,32.40
2022-12-01T12:07:34.092Z,35.83
2022-12-01T12:10:19.280Z,36.57
2022-12-01T12:13:16.579Z,39.50
2022-12-01T12:16:05.528Z,37.10
2022-12-01T12:18:51.506Z,38.13
2022-12-01T12:21:33.226Z,34.87
2022-12-01T12:24:11.888Z,38.43
2022-12-01T12:26:41.461Z,35.57
2022-12-01T12:29:34.739Z,37.93
2022-12-01T12:32:19.260Z,38.57
2022-12-01T12:34:56.159Z,44.53
2022-12-01T12:37:38.813Z,37.63
2022-12-01T12:40:26.485Z,36.57
2022-12-01T12:43:03.752Z,39.77
2022-12-01T12:45:53.652Z,40.87
2022-12-01T12:49:03.494Z,41.73
2022-12-01T12:51:33.889Z,38.53
2022-12-01T12:54:12.755Z,39.47
2022-12-01T12:56:45.930Z,48.27
2022-12-01T12:59:24.831Z,47.87
2022-12-01T13:02:04.632Z,40.10
2022-12-01T13:04:54.300Z,45.60
2022-12-01T13:07:37.246Z,45.73
2022-12-01T13:10:13.830Z,42.73
2022-12-01T13:12:45.673Z,45.60
2022-12-01T13:15:17.903Z,40.50
2022-12-01T13:17:57.611Z,49.23
2022-12-01T13:20:27.845Z,54.53
2022-12-01T13:22:57.704Z,50.53
2022-12-01T13:25:32.735Z,51.87
2022-12-01T13:28:02.084Z,49.53
2022-12-01T13:30:29.247Z,52.27
2022-12-01T13:33:04.228Z,51.10
2022-12-01T13:35:39.134Z,54.93
2022-12-01T13:38:24.874Z,45.13
2022-12-01T13:41:32.015Z,49.23
2022-12-01T13:44:20.784Z,41.53
2022-12-01T13:46:47.910Z,47.43
2022-12-01T13:49:40.456Z,44.67
2022-12-01T13:52:22.217Z,47.03
2022-12-01T13:55:07.226Z,46.13
2022-12-01T13:57:37.078Z,45.27
2022-12-01T14:00:06.822Z,51.90
2022-12-01T14:02:37.035Z,51.47
2022-12-01T14:05:43.456Z,48.63
2022-12-01T14:08:31.008Z,51.73
2022-12-01T14:11:04.863Z,41.17
2022-12-01T14:13:35.749Z,47.00
2022-12-01T14:16:04.411Z,49.10
2022-12-01T14:18:36.269Z,45.40
2022-12-01T14:21:06.821Z,41.50
2022-12-01T14:24:01.080Z,44.83
2022-12-01T14:26:30.361Z,48.43
2022-12-01T14:28:57.540Z,37.87
2022-12-01T14:31:35.139Z,45.70
2022-12-01T14:34:19.316Z,39.60
2022-12-01T14:36:54.461Z,36.60
2022-12-01T14:39:34.014Z,52.65
2022-12-01T14:42:38.603Z,49.93
2022-12-01T14:45:07.364Z,47.33
2022-12-01T14:47:42.421Z,43.00
2022-12-01T14:50:28.163Z,43.77
2022-12-01T14:53:13.433Z,46.90
2022-12-01T14:55:45.780Z,41.10
2022-12-01T14:58:29.182Z,45.03
2022-12-01T15:01:10.044Z,44.53
2022-12-01T15:03:43.829Z,42.47
2022-12-01T15:06:15.582Z,37.53
2022-12-01T15:08:53.319Z,42.50
2022-12-01T15:11:26.278Z,35.40
2022-12-01T15:13:55.562Z,42.53
2022-12-01T15:16:25.175Z,34.27
2022-12-01T15:18:52.496Z,36.23
2022-12-01T15:21:24.189Z,39.20
2022-12-01T15:23:59.739Z,35.83
2022-12-01T15:26:49.022Z,32.53
2022-12-01T15:29:26.259Z,36.90
2022-12-01T15:31:59.461Z,37.97
2022-12-01T15:34:33.375Z,32.17
2022-12-01T15:37:03.085Z,41.43
2022-12-01T15:39:34.427Z,35.33
2022-12-01T15:42:02.351Z,33.90
2022-12-01T15:44:34.815Z,39.27
2022-12-01T15:47:30.929Z,37.10
2022-12-01T15:49:57.547Z,38.85
2022-12-01T15:52:24.408Z,28.20
2022-12-01T15:54:51.806Z,28.67
2022-12-01T15:57:21.329Z,33.87
2022-12-01T15:59:54.938Z,28.57
2022-12-01T16:02:30.065Z,29.83
2022-12-01T16:05:02.570Z,27.47
2022-12-01T16:08:04.922Z,29.17
2022-12-01T16:10:36.382Z,28.00
2022-12-01T16:13:40.884Z,28.63
2022-12-01T16:16:49.732Z,34.90
2022-12-01T16:19:16.439Z,31.87
2022-12-01T16:22:13.989Z,30.50
2022-12-01T16:24:53.515Z,36.40
2022-12-01T16:27:26.017Z,30.03
2022-12-01T16:29:53.929Z,30.83
2022-12-01T16:32:23.382Z,32.33
2022-12-01T16:34:52.404Z,34.23
2022-12-01T16:37:19.602Z,22.73
2022-12-01T16:39:46.611Z,27.57
2022-12-01T16:42:15.818Z,22.63
2022-12-01T16:44:44.560Z,27.83
2022-12-01T16:47:21.644Z,31.77
2022-12-01T16:49:48.955Z,24.77
2022-12-01T16:52:43.293Z,28.67
2022-12-01T16:55:02.135Z,24.87
2022-12-01T16:57:29.151Z,27.43
2022-12-01T16:59:56.183Z,27.67
2022-12-01T17:02:23.258Z,27.27
2022-12-01T17:04:50.069Z,26.80
2022-12-01T17:07:17.360Z,28.77
2022-12-01T17:09:44.401Z,30.10
2022-12-01T17:12:11.442Z,29.27
2022-12-01T17:14:38.449Z,25.67
2022-12-01T17:17:05.442Z,31.77
2022-12-01T17:19:32.036Z,31.77
2022-12-01T17:21:58.636Z,25.83
2022-12-01T17:24:25.868Z,29.13
2022-12-01T17:26:52.477Z,33.23
2022-12-01T17:29:19.031Z,27.13
2022-12-01T17:31:46.014Z,27.70
2022-12-01T17:34:13.072Z,25.67
2022-12-01T17:36:40.114Z,26.53
2022-12-01T17:39:07.113Z,22.77
2022-12-01T17:41:35.763Z,25.27
2022-12-01T17:44:04.441Z,27.73
2022-12-01T17:46:31.736Z,31.40
2022-12-01T17:48:59.343Z,29.37
2022-12-01T17:51:26.349Z,28.73
2022-12-01T17:53:53.725Z,33.00
2022-12-01T17:56:20.699Z,31.77
2022-12-01T17:58:50.298Z,26.57
2022-12-01T18:01:19.276Z,32.13
2022-12-01T18:03:46.693Z,31.10
2022-12-01T18:06:14.310Z,35.57
2022-12-01T18:08:41.411Z,26.40
2022-12-01T18:11:11.706Z,24.43
2022-12-01T18:13:44.212Z,29.87
2022-12-01T18:16:17.531Z,32.30
2022-12-01T18:18:44.491Z,29.30
2022-12-01T18:21:13.557Z,25.73
2022-12-01T18:23:40.605Z,26.07
2022-12-01T18:26:15.223Z,31.57
2022-12-01T18:28:42.641Z,25.77
2022-12-01T18:31:14.601Z,25.77
2022-12-01T18:33:43.660Z,23.40
2022-12-01T18:36:16.504Z,28.73
2022-12-01T18:38:43.233Z,24.03
2022-12-01T18:41:09.860Z,26.63
2022-12-01T18:43:36.833Z,27.80
2022-12-01T18:46:05.620Z,29.77
2022-12-01T18:48:33.187Z,23.70
2022-12-01T18:51:04.350Z,31.63
2022-12-01T18:53:31.408Z,26.60
2022-12-01T18:56:05.623Z,29.33
2022-12-01T18:58:33.348Z,32.57
2022-12-01T19:01:01.133Z,32.87
2022-12-01T19:03:31.827Z,31.70
2022-12-01T19:05:59.249Z,31.90
2022-12-01T19:08:25.805Z,29.23
2022-12-01T19:11:03.223Z,37.43
2022-12-01T19:13:31.251Z,33.67
2022-12-01T19:15:57.954Z,45.60
2022-12-01T19:18:25.011Z,30.70
2022-12-01T19:20:52.176Z,32.00
2022-12-01T19:23:18.899Z,30.63
2022-12-01T19:25:45.517Z,40.43
2022-12-01T19:28:12.590Z,38.60
2022-12-01T19:30:44.006Z,32.73
2022-12-01T19:33:13.776Z,34.97
2022-12-01T19:35:40.813Z,37.07
2022-12-01T19:38:07.417Z,32.30
2022-12-01T19:40:34.482Z,30.03
2022-12-01T19:43:01.604Z,35.10
2022-12-01T19:45:30.274Z,37.37
2022-12-01T19:47:57.638Z,37.07
2022-12-01T19:50:24.942Z,39.57
2022-12-01T19:52:51.566Z,36.20
2022-12-01T19:55:18.215Z,39.40
2022-12-01T19:57:44.772Z,37.33
2022-12-01T20:00:12.041Z,37.17
2022-12-01T20:02:38.818Z,32.50
2022-12-01T20:05:06.060Z,36.43
2022-12-01T20:07:33.146Z,44.83
2022-12-01T20:10:00.235Z,39.63
2022-12-01T20:12:26.853Z,36.50
2022-12-01T20:14:54.120Z,36.30
2022-12-01T20:17:21.127Z,41.37
2022-12-01T20:19:48.133Z,46.27
2022-12-01T20:22:15.150Z,44.27
2022-12-01T20:24:42.153Z,42.33
2022-12-01T20:27:09.720Z,52.27
2022-12-01T20:29:36.866Z,39.30
2022-12-01T20:32:03.834Z,47.73
2022-12-01T20:34:35.692Z,51.27
2022-12-01T20:37:06.992Z,44.53
2022-12-01T20:39:36.812Z,42.03
2022-12-01T20:42:04.234Z,50.37
2022-12-01T20:44:31.288Z,46.50
2022-12-01T20:46:58.012Z,49.43
2022-12-01T20:49:25.182Z,49.37
2022-12-01T20:51:52.246Z,49.10
2022-12-01T20:54:28.379Z,54.20
2022-12-01T20:56:56.053Z,46.73
2022-12-01T20:59:22.806Z,38.57
2022-12-01T21:01:50.006Z,47.30
2022-12-01T21:04:17.133Z,50.87
2022-12-01T21:06:44.112Z,50.67
2022-12-01T21:09:12.908Z,55.93
2022-12-01T21:12:04.778Z,44.17
2022-12-01T21:15:10.556Z,42.27
2022-12-01T21:17:48.203Z,46.03
2022-12-01T21:20:21.253Z,44.23
2022-12-01T21:22:49.871Z,45.33
2022-12-01T21:25:22.176Z,56.60
2022-12-01T21:27:49.259Z,46.97
2022-12-01T21:30:21.803Z,51.57
2022-12-01T21:32:49.659Z,53.90
2022-12-01T21:35:24.894Z,54.73
2022-12-01T21:37:58.286Z,53.00
2022-12-01T21:40:26.952Z,48.63
2022-12-01T21:42:53.684Z,51.77
2022-12-01T21:45:30.010Z,47.83
2022-12-01T21:48:19.885Z,49.13
2022-12-01T21:50:50.860Z,45.67
2022-12-01T21:53:21.148Z,52.77
2022-12-01T21:55:50.106Z,42.63
2022-12-01T21:58:22.532Z,44.50
2022-12-01T22:00:49.569Z,46.90
2022-12-01T22:03:16.088Z,51.53
2022-12-01T22:06:27.579Z,45.77
2022-12-01T22:08:46.185Z,42.80
2022-12-01T22:11:23.074Z,47.43
2022-12-01T22:13:53.615Z,42.40
2022-12-01T22:16:30.738Z,44.43
2022-12-01T22:19:06.273Z,41.57
2022-12-01T22:21:33.342Z,45.43
2022-12-01T22:24:33.177Z,42.60
2022-12-01T22:27:03.340Z,45.73
2022-12-01T22:29:33.683Z,43.67
2022-12-01T22:32:13.193Z,44.83
2022-12-01T22:34:49.596Z,52.70
2022-12-01T22:37:22.240Z,51.93
2022-12-01T22:39:53.817Z,49.30
2022-12-01T22:42:40.680Z,53.53
2022-12-01T22:45:23.220Z,50.20
2022-12-01T22:47:50.252Z,49.90
2022-12-01T22:50:35.892Z,57.70
2022-12-01T22:53:13.349Z,49.00
2022-12-01T22:55:40.644Z,45.47
2022-12-01T22:58:41.959Z,52.30
2022-12-01T23:01:24.357Z,47.33
2022-12-01T23:04:19.376Z,54.03
2022-12-01T23:06:54.621Z,54.63
2022-12-01T23:09:23.061Z,51.47
2022-12-01T23:11:53.940Z,59.77
2022-12-01T23:14:22.887Z,51.93
2022-12-01T23:16:53.319Z,56.20
2022-12-01T23:19:20.313Z,54.57
2022-12-01T23:21:47.347Z,54.97
2022-12-01T23:24:17.889Z,47.80
2022-12-01T23:26:46.474Z,64.03
2022-12-01T23:29:13.497Z,50.80
2022-12-01T23:31:40.804Z,48.13
2022-12-01T23:34:14.068Z,58.93
2022-12-01T23:36:41.309Z,51.30
2022-12-01T23:39:12.529Z,55.53
2022-12-01T23:41:41.853Z,61.07
2022-12-01T23:44:22.271Z,50.97
2022-12-01T23:46:51.834Z,57.20
2022-12-01T23:49:25.526Z,53.40
2022-12-01T23:51:53.941Z,49.20
2022-12-01T23:54:32.309Z,51.87
2022-12-01T23:57:02.911Z,56.13
2022-12-01T23:59:31.427Z,57.17
